Time;durP1;ratioP1;P1;durP2;ratioP2;P2;SDS_P1;SDS_P2;PMS_P1;PMS_P2;Temp;Humidity;BMP_temperature;BMP_pressure;BME280_temperature;BME280_humidity;BME280_pressure;Samples;Min_cycle;Max_cycle;Signal;HPM_P1;HPM_P2
2022/06/22 00:01:38;;;;;;;4.40;2.88;;;11.70;99.90;;;;;;5041978;28;20075;-71
2022/06/22 00:04:04;;;;;;;5.18;3.17;;;11.60;99.90;;;;;;5043149;28;20088;-71
2022/06/22 00:06:40;;;;;;;4.80;3.35;;;11.50;99.90;;;;;;5052288;28;20404;-71
2022/06/22 00:09:15;;;;;;;6.00;3.67;;;11.50;99.90;;;;;;5042784;28;20069;-71
2022/06/22 00:11:43;;;;;;;7.13;4.85;;;11.60;99.90;;;;;;5052759;28;20055;-70
2022/06/22 00:14:17;;;;;;;6.25;4.80;;;11.70;99.90;;;;;;5041710;28;20480;-71
2022/06/22 00:16:49;;;;;;;7.95;5.07;;;11.80;99.90;;;;;;5038838;28;20088;-71
2022/06/22 00:19:42;;;;;;;7.70;5.40;;;11.40;99.90;;;;;;5052133;28;20520;-71
2022/06/22 00:22:24;;;;;;;6.63;5.03;;;11.40;99.90;;;;;;5038963;28;20101;-71
2022/06/22 00:25:13;;;;;;;8.95;4.93;;;11.30;99.90;;;;;;5052816;28;20044;-72
2022/06/22 00:27:39;;;;;;;7.35;5.13;;;11.30;99.90;;;;;;5042676;28;20116;-70
2022/06/22 00:30:12;;;;;;;;;;;11.30;99.90;;;;;;5052329;28;20121;-71
2022/06/22 00:32:38;;;;;;;;;;;11.30;99.90;;;;;;5052835;28;19982;-71
2022/06/22 00:35:22;;;;;;;;;;;11.30;99.90;;;;;;5051622;28;20025;-71
2022/06/22 00:37:52;;;;;;;;;;;11.20;99.90;;;;;;5049293;28;19927;-71
2022/06/22 00:40:18;;;;;;;;;;;11.10;99.90;;;;;;5051693;28;19959;-71
2022/06/22 00:42:47;;;;;;;;;;;11.10;99.90;;;;;;5051949;28;19952;-71
2022/06/22 00:45:21;;;;;;;;;;;11.00;99.90;;;;;;5037855;28;19924;-71
2022/06/22 00:47:54;;;;;;;;;;;11.00;99.90;;;;;;5038562;28;19924;-70
2022/06/22 00:50:24;;;;;;;;;;;10.90;99.90;;;;;;5052258;28;19924;-71
2022/06/22 00:52:53;;;;;;;;;;;10.80;99.90;;;;;;5052348;28;20053;-70
2022/06/22 00:55:22;;;;;;;;;;;10.80;99.90;;;;;;5050982;28;19921;-71
2022/06/22 00:57:51;;;;;;;;;;;10.70;99.90;;;;;;5052593;28;19920;-71
2022/06/22 01:00:19;;;;;;;;;;;10.70;99.90;;;;;;5051779;28;19996;-71
2022/06/22 01:02:47;;;;;;;;;;;10.60;99.90;;;;;;5042241;28;20384;-71
2022/06/22 01:05:19;;;;;;;;;;;10.70;99.90;;;;;;5051617;28;19925;-71
2022/06/22 01:07:59;;;;;;;;;;;10.60;99.90;;;;;;5042495;28;19964;-70
2022/06/22 01:10:32;;;;;;;;;;;10.60;99.90;;;;;;5042559;28;19920;-71
2022/06/22 01:13:00;;;;;;;;;;;10.60;99.90;;;;;;5050709;28;20296;-71
2022/06/22 01:15:31;;;;;;;;;;;10.80;99.90;;;;;;5051988;28;20288;-70
2022/06/22 01:17:56;;;;;;;;;;;10.60;99.90;;;;;;5041311;28;20401;-71
2022/06/22 01:20:49;;;;;;;;;;;10.60;99.90;;;;;;5051239;28;20007;-71
2022/06/22 01:23:30;;;;;;;;;;;10.60;99.90;;;;;;5048040;28;20213;-71
2022/06/22 01:26:04;;;;;;;;;;;10.60;99.90;;;;;;5051998;28;19928;-71
2022/06/22 01:28:29;;;;;;;;;;;10.60;99.90;;;;;;5042523;28;20015;-71
2022/06/22 01:31:01;;;;;;;;;;;11.00;99.90;;;;;;5050780;28;20476;-70
2022/06/22 01:33:34;;;;;;;;;;;10.60;99.90;;;;;;5051791;28;19921;-70
2022/06/22 01:36:20;;;;;;;;;;;10.60;99.90;;;;;;5041910;28;19920;-71
2022/06/22 01:38:46;;;;;;;;;;;10.60;99.90;;;;;;5037689;28;19927;-71
2022/06/22 01:41:21;;;;;;;;;;;10.60;99.90;;;;;;5038778;28;19921;-71
2022/06/22 01:43:48;;;;;;;;;;;10.60;99.90;;;;;;5051573;28;19920;-71
2022/06/22 01:46:18;;;;;;;;;;;10.50;99.90;;;;;;5050615;28;19927;-71
2022/06/22 01:48:52;;;;;;;;;;;10.50;99.90;;;;;;5051221;28;19925;-71
2022/06/22 01:51:22;;;;;;;;;;;10.40;99.90;;;;;;5050080;28;20372;-71
2022/06/22 01:53:51;;;;;;;;;;;10.50;99.90;;;;;;5051335;28;19921;-71
2022/06/22 01:56:25;;;;;;;;;;;10.40;99.90;;;;;;5044899;28;20379;-71
2022/06/22 01:59:12;;;;;;;;;;;10.40;99.90;;;;;;5045069;28;19928;-71
2022/06/22 02:01:41;;;;;;;;;;;10.40;99.90;;;;;;5055588;28;19968;-71
2022/06/22 02:04:10;;;;;;;;;;;10.30;99.90;;;;;;5045173;28;19928;-71
2022/06/22 02:09:47;;;;;;;;;;;10.40;99.90;;;;;;5051190;28;19920;-71
2022/06/22 02:12:19;;;;;;;;;;;10.30;99.90;;;;;;5052158;28;20330;-71
2022/06/22 02:14:47;;;;;;;;;;;10.30;99.90;;;;;;5055071;28;19932;-71
2022/06/22 02:17:14;;;;;;;;;;;10.30;99.90;;;;;;5045197;28;19921;-71
2022/06/22 02:19:40;;;;;;;;;;;10.30;99.90;;;;;;5044563;28;19925;-71
2022/06/22 02:22:09;;;;;;;;;;;10.30;99.90;;;;;;5045386;28;19921;-70
2022/06/22 02:24:46;;;;;;;;;;;10.30;99.90;;;;;;5055191;28;20360;-71
2022/06/22 02:27:17;;;;;;;;;;;10.30;99.90;;;;;;5054246;28;20015;-71
2022/06/22 02:29:48;;;;;;;;;;;10.30;99.90;;;;;;5054841;28;19921;-71
2022/06/22 02:32:27;;;;;;;;;;;10.30;99.90;;;;;;5054613;28;19925;-71
2022/06/22 02:34:54;;;;;;;;;;;10.30;99.90;;;;;;5040514;28;19959;-71
2022/06/22 02:37:22;;;;;;;;;;;10.30;99.90;;;;;;5054363;28;19925;-72
2022/06/22 02:39:50;;;;;;;;;;;10.30;99.90;;;;;;5054833;28;20015;-72
2022/06/22 02:45:00;;;;;;;;;;;10.30;99.90;;;;;;5040544;28;19952;-71
2022/06/22 02:47:31;;;;;;;;;;;10.20;99.90;;;;;;5054222;28;20282;-71
2022/06/22 02:50:00;;;;;;;;;;;10.20;99.90;;;;;;5054342;28;20019;-71
2022/06/22 02:52:28;;;;;;;;;;;10.20;99.90;;;;;;5054659;28;19928;-72
2022/06/22 02:54:55;;;;;;;;;;;10.20;99.90;;;;;;5053711;28;20338;-71
2022/06/22 02:57:29;;;;;;;;;;;10.20;99.90;;;;;;5054308;28;20288;-71
2022/06/22 02:59:55;;;;;;;;;;;10.20;99.90;;;;;;5041233;28;20272;-72
2022/06/22 03:02:21;;;;;;;;;;;10.20;99.90;;;;;;5043357;28;19924;-71
2022/06/22 03:04:48;;;;;;;;;;;10.20;99.90;;;;;;5053804;28;19931;-71
2022/06/22 03:07:14;;;;;;;;;;;10.10;99.90;;;;;;5053253;28;20020;-71
2022/06/22 03:09:41;;;;;;;;;;;10.10;99.90;;;;;;5053270;28;19916;-72
2022/06/22 03:12:08;;;;;;;;;;;10.10;99.90;;;;;;5054310;28;19920;-71
2022/06/22 03:14:37;;;;;;;;;;;10.10;99.90;;;;;;5054135;28;19971;-71
2022/06/22 03:17:02;;;;;;;;;;;10.10;99.90;;;;;;5042813;28;19925;-71
2022/06/22 03:19:33;;;;;;;;;;;10.10;99.90;;;;;;5053685;28;19925;-71
2022/06/22 03:21:59;;;;;;;;;;;10.10;99.90;;;;;;5053881;28;19920;-71
2022/06/22 03:24:25;;;;;;;;;;;10.00;99.90;;;;;;5043938;28;19927;-71
2022/06/22 03:26:54;;;;;;;;;;;10.00;99.90;;;;;;5044521;28;19921;-71
2022/06/22 03:29:25;;;;;;;;;;;10.00;99.90;;;;;;5042614;28;20055;-71
2022/06/22 03:31:55;;;;;;;;;;;10.00;99.90;;;;;;5052753;28;19951;-71
2022/06/22 03:34:24;;;;;;;;;;;9.90;99.90;;;;;;5053476;28;20016;-71
2022/06/22 03:36:52;;;;;;;;;;;9.90;99.90;;;;;;5052963;28;19928;-71
2022/06/22 03:39:19;;;;;;;;;;;9.90;99.90;;;;;;5053330;28;20287;-71
2022/06/22 03:41:51;;;;;;;;;;;9.90;99.90;;;;;;5053599;28;19972;-71
2022/06/22 03:44:27;;;;;;;;;;;10.00;99.90;;;;;;5038998;28;19920;-71
2022/06/22 03:46:54;;;;;;;;;;;10.00;99.90;;;;;;5053758;28;19921;-71
2022/06/22 03:49:34;;;;;;;;;;;10.30;99.90;;;;;;5053256;28;20267;-71
2022/06/22 03:52:14;;;;;;;;;;;10.00;99.90;;;;;;5052513;28;20019;-71
2022/06/22 03:54:46;;;;;;;;;;;10.10;99.90;;;;;;5049232;28;19971;-71
2022/06/22 03:57:12;;;;;;;;;;;10.10;99.90;;;;;;5038985;28;19931;-71
2022/06/22 03:59:39;;;;;;;;;;;10.40;99.90;;;;;;5042261;28;20008;-71
2022/06/22 04:02:05;;;;;;;;;;;10.10;99.90;;;;;;5043233;28;19952;-71
2022/06/22 04:04:31;;;;;;;;;;;10.20;99.90;;;;;;5052884;28;19963;-70
2022/06/22 04:06:57;;;;;;;;;;;10.20;99.90;;;;;;5042480;28;20007;-70
2022/06/22 04:09:24;;;;;;;;;;;10.60;99.90;;;;;;5052822;28;20335;-70
2022/06/22 04:11:49;;;;;;;;;;;10.30;99.90;;;;;;5052315;28;20323;-71
2022/06/22 04:14:18;;;;;;;;;;;10.30;99.90;;;;;;5044445;28;19921;-71
2022/06/22 04:16:45;;;;;;;;;;;10.40;99.90;;;;;;5042970;28;19929;-70
2022/06/22 04:19:10;;;;;;;;;;;10.40;99.90;;;;;;5051790;28;20434;-70
2022/06/22 04:21:41;;;;;;;;;;;10.50;99.90;;;;;;5043108;28;19920;-70
2022/06/22 04:24:11;;;;;;;;;;;10.50;99.90;;;;;;5049193;28;20007;-70
2022/06/22 04:26:40;;;;;;;;;;;10.60;99.90;;;;;;5048293;28;19920;-71
2022/06/22 04:29:18;;;;;;;;;;;10.70;99.90;;;;;;5048792;28;19928;-70
2022/06/22 04:31:50;;;;;;;;;;;10.70;99.90;;;;;;5039997;28;19959;-70
2022/06/22 04:34:22;;;;;;;;;;;10.80;99.90;;;;;;5042103;28;19943;-71
2022/06/22 04:36:50;;;;;;;;;;;10.80;99.90;;;;;;5052454;28;20386;-70
2022/06/22 04:39:35;;;;;;;;;;;10.90;99.90;;;;;;5052227;28;19974;-71
2022/06/22 04:42:02;;;;;;;;;;;11.00;99.90;;;;;;5051418;28;19944;-71
2022/06/22 04:44:29;;;;;;;;;;;11.00;99.90;;;;;;5038502;28;20007;-70
2022/06/22 04:46:56;;;;;;;;;;;11.10;99.90;;;;;;5041976;28;19921;-70
2022/06/22 04:49:33;;;;;;;;;;;11.20;99.90;;;;;;5042242;28;19927;-71
2022/06/22 04:52:18;;;;;;;;;;;11.20;99.90;;;;;;5042486;28;20319;-71
2022/06/22 04:54:44;;;;;;;;;;;11.30;99.90;;;;;;5049411;28;19924;-71
2022/06/22 04:57:18;;;;;;;;;;;11.40;99.90;;;;;;5051812;28;19925;-68
2022/06/22 04:59:44;;;;;;;;;;;11.50;99.90;;;;;;5051760;28;19925;-72
2022/06/22 05:02:11;;;;;;;;;;;11.60;99.90;;;;;;5050650;28;19944;-71
2022/06/22 05:04:42;;;;;;;;;;;11.60;99.90;;;;;;5049239;28;19927;-71
2022/06/22 05:07:26;;;;;;;;;;;11.70;99.90;;;;;;5041571;28;20390;-72
2022/06/22 05:10:02;;;;;;;;;;;11.80;99.90;;;;;;5051247;28;19928;-75
2022/06/22 05:12:29;;;;;;;;;;;11.90;99.90;;;;;;5047782;28;19929;-74
2022/06/22 05:14:56;;;;;;;;;;;11.90;99.90;;;;;;5051959;28;20292;-76
2022/06/22 05:17:26;;;;;;;;;;;12.00;99.90;;;;;;5041182;28;19924;-75
2022/06/22 05:20:04;;;;;;;;;;;12.20;99.90;;;;;;5041996;28;19920;-73
2022/06/22 05:22:29;;;;;;;;;;;12.20;99.90;;;;;;5037548;28;20001;-78
2022/06/22 05:24:58;;;;;;;;;;;12.30;99.90;;;;;;5052011;28;19974;-75
2022/06/22 05:27:26;;;;;;;;;;;12.40;99.90;;;;;;5041817;28;19979;-75
2022/06/22 05:29:58;;;;;;;;;;;12.60;99.90;;;;;;5036165;28;19995;-76
2022/06/22 05:32:29;;;;;;;;;;;12.70;99.90;;;;;;5037030;28;20320;-74
2022/06/22 05:34:55;;;;;;;;;;;12.70;99.90;;;;;;5051475;28;20059;-77
2022/06/22 05:37:26;;;;;;;;;;;12.80;99.90;;;;;;5040948;28;19931;-79
2022/06/22 05:39:52;;;;;;;;;;;12.90;99.90;;;;;;5047670;28;20016;-71
2022/06/22 05:42:18;;;;;;;;;;;13.00;99.90;;;;;;5050435;28;19972;-79
2022/06/22 05:44:44;;;;;;;;;;;13.10;99.90;;;;;;5039849;28;19929;-73
2022/06/22 05:47:14;;;;;;;;;;;13.10;99.90;;;;;;5051074;28;20463;-77
2022/06/22 05:50:04;;;;;;;;;;;13.20;99.90;;;;;;5042116;28;19921;-76
2022/06/22 05:52:48;;;;;;;;;;;13.30;99.90;;;;;;5036884;28;20059;-77
2022/06/22 05:55:17;;;;;;;;;;;13.40;99.90;;;;;;5051257;28;19943;-76
2022/06/22 05:57:49;;;;;;;;;;;13.40;99.90;;;;;;5051123;28;20047;-75
2022/06/22 06:00:18;;;;;;;;;;;13.50;99.90;;;;;;5050563;28;19952;-77
2022/06/22 06:02:48;;;;;;;;;;;13.60;99.90;;;;;;5041453;28;19929;-73
2022/06/22 06:05:13;;;;;;;;;;;13.70;99.90;;;;;;5050453;28;20002;-75
2022/06/22 06:07:41;;;;;;;;;;;13.70;99.90;;;;;;5051367;28;20371;-74
2022/06/22 06:10:13;;;;;;;;;;;14.10;99.90;;;;;;5050745;28;20424;-72
2022/06/22 06:12:41;;;;;;;;;;;13.90;99.90;;;;;;5041254;28;20280;-72
2022/06/22 06:15:09;;;;;;;;;;;14.00;99.90;;;;;;5050794;28;19921;-72
2022/06/22 06:17:37;;;;;;;;;;;14.10;99.90;;;;;;5041652;28;20007;-73
2022/06/22 06:20:05;;;;;;;;;;;14.10;99.90;;;;;;5050170;28;19943;-73
2022/06/22 06:22:31;;;;;;;;;;;14.20;99.90;;;;;;5051158;28;19920;-73
2022/06/22 06:27:53;;;;;;;;;;;14.50;99.90;;;;;;5047770;28;19943;-76
2022/06/22 06:30:39;;;;;;;;;;;14.60;99.90;;;;;;5040974;28;19924;-73
2022/06/22 06:33:09;;;;;;;;;;;14.70;99.90;;;;;;5039645;28;19921;-75
2022/06/22 06:35:43;;;;;;;;;;;14.70;99.90;;;;;;5041971;28;19929;-74
2022/06/22 06:38:28;;;;;;;;;;;14.80;99.90;;;;;;5040701;28;20007;-75
2022/06/22 06:41:12;;;;;;;;;;;14.90;99.90;;;;;;5038351;28;19928;-75
2022/06/22 06:43:37;;;;;;;;;;;15.00;99.90;;;;;;5054168;28;19946;-78
2022/06/22 06:46:21;;;;;;;;;;;15.20;99.90;;;;;;5054206;28;20007;-77
2022/06/22 06:49:06;;;;;;;;;;;15.20;99.90;;;;;;5040982;28;19975;-76
2022/06/22 06:51:33;;;;;;;;;;;15.30;99.90;;;;;;5054483;28;19927;-78
2022/06/22 06:54:06;;;;;;;;;;;15.40;99.90;;;;;;5039977;28;19987;-81
2022/06/22 06:56:42;;;;;;;;;;;15.50;99.90;;;;;;5054587;28;19921;-80
2022/06/22 06:59:13;;;;;;;;;;;15.60;99.90;;;;;;5054288;28;19916;-78
2022/06/22 07:01:39;;;;;;;;;;;15.60;99.90;;;;;;5045813;28;19921;-78
2022/06/22 07:04:07;;;;;;;;;;;15.90;99.90;;;;;;5053875;28;19927;-76
2022/06/22 07:06:33;;;;;;;;;;;16.20;99.90;;;;;;5044580;28;20339;-80
2022/06/22 07:09:19;;;;;;;;;;;15.90;99.90;;;;;;5039863;28;19925;-79
2022/06/22 07:11:49;;;;;;;;;;;16.50;99.90;;;;;;5050464;28;20039;-78
2022/06/22 07:14:26;;;;;;;;;;;16.10;99.90;;;;;;5053720;28;20291;-79
2022/06/22 07:16:54;;;;;;;;;;;16.30;99.90;;;;;;5054036;28;19920;-80
2022/06/22 07:19:22;;;;;;;;;;;16.50;99.90;;;;;;5062956;28;19925;-79
2022/06/22 07:22:14;;;;;;;;;;;16.90;99.90;;;;;;5064616;28;19932;-80
2022/06/22 07:24:45;;;;;;;;;;;17.80;99.90;;;;;;5038805;28;19946;-80
2022/06/22 07:27:26;;;;;;;;;;;19.10;99.90;;;;;;5061931;28;19924;-77
2022/06/22 07:29:57;;;;;;;;;;;20.00;99.90;;;;;;5062900;28;19962;-81
2022/06/22 07:32:23;;;;;;;;;;;20.90;99.90;;;;;;5060208;28;19928;-82
2022/06/22 07:35:03;;;;;;;;;;;21.70;99.90;;;;;;5060850;28;19943;-82
2022/06/22 07:37:41;;;;;;;;;;;22.50;99.00;;;;;;5056802;28;19930;-79
2022/06/22 07:40:15;;;;;;;;;;;23.20;98.00;;;;;;5060903;28;19924;-80
2022/06/22 07:42:43;;;;;;;;;;;23.80;96.90;;;;;;5064532;28;20033;-76
2022/06/22 07:45:16;;;;;;;;;;;24.20;95.80;;;;;;5061736;28;19975;-76
2022/06/22 07:47:59;;;;;;;;;;;24.60;94.60;;;;;;5060987;28;19924;-76
2022/06/22 07:50:26;;;;;;;;;;;24.70;94.40;;;;;;5044517;28;19974;-75
2022/06/22 07:53:03;;;;;;;;;;;25.10;94.40;;;;;;5062209;28;20019;-74
2022/06/22 07:55:31;;;;;;;;;;;25.30;93.60;;;;;;5046699;28;19931;-76
2022/06/22 07:58:02;;;;;;;;;;;25.70;93.40;;;;;;5061051;28;19927;-77
2022/06/22 08:00:30;;;;;;;;;;;25.90;92.40;;;;;;5063814;28;19925;-77
2022/06/22 08:03:00;;;;;;;;;;;26.10;94.20;;;;;;5042272;28;19938;-77
2022/06/22 08:05:28;;;;;;;;;;;26.20;92.30;;;;;;5061226;28;19975;-77
2022/06/22 08:08:00;;;;;;;;;;;26.50;92.20;;;;;;5064158;28;19978;-76
2022/06/22 08:10:47;;;;;;;;;;;26.60;92.20;;;;;;5043453;28;19971;-76
2022/06/22 08:13:18;;;;;;;;;;;26.60;90.80;;;;;;5062612;28;19928;-75
2022/06/22 08:15:47;;;;;;;;;;;26.40;91.00;;;;;;5060361;28;19936;-82
2022/06/22 08:18:13;;;;;;;;;;;26.70;91.70;;;;;;5042383;28;20035;-82
2022/06/22 08:20:41;;;;;;;;;;;26.70;92.30;;;;;;5052464;28;19974;-82
2022/06/22 08:23:07;;;;;;;;;;;26.60;91.30;;;;;;5052430;28;20445;-82
2022/06/22 08:25:33;;;;;;;;;;;27.00;90.80;;;;;;5039935;28;19927;-87
2022/06/22 08:28:00;;;;;;;;;;;27.30;91.50;;;;;;5041964;28;20304;-83
2022/06/22 08:30:25;;;;;;;;;;;27.70;91.10;;;;;;5052451;28;19928;-78
2022/06/22 08:32:51;;;;;;;;;;;27.50;90.80;;;;;;5050617;28;19921;-76
2022/06/22 08:35:29;;;;;;;;;;;27.80;88.30;;;;;;5039540;28;20659;-78
2022/06/22 08:38:14;;;;;;;;;;;27.50;90.20;;;;;;5048242;28;19932;-77
2022/06/22 08:40:45;;;;;;;;;;;27.50;90.80;;;;;;5049137;28;19921;-79
2022/06/22 08:43:17;;;;;;;;;;;27.90;90.40;;;;;;5042579;28;19928;-76
2022/06/22 08:46:01;;;;;;;;;;;27.40;90.10;;;;;;5052817;28;20395;-79
2022/06/22 08:48:45;;;;;;;;;;;27.70;90.90;;;;;;5040722;28;19976;-79
2022/06/22 08:51:31;;;;;;;;;;;27.50;90.60;;;;;;5052073;28;19928;-76
2022/06/22 08:54:16;;;;;;;;;;;26.60;90.80;;;;;;5048504;28;19959;-79
2022/06/22 08:57:03;;;;;;;;;;;26.50;92.20;;;;;;5037898;28;19932;-75
2022/06/22 08:59:29;;;;;;;;;;;26.70;92.40;;;;;;5034610;28;20368;-78
2022/06/22 09:01:57;;;;;;;;;;;27.10;91.50;;;;;;5041340;28;19927;-79
2022/06/22 09:04:38;;;;;;;;;;;27.30;91.10;;;;;;5051299;28;19921;-79
2022/06/22 09:07:15;;;;;;;;;;;27.70;91.80;;;;;;5051719;28;19920;-79
2022/06/22 09:09:59;;;;;;;;;;;28.00;88.50;;;;;;5051806;28;19966;-80
2022/06/22 09:12:43;;;;;;;;;;;28.30;90.70;;;;;;5042167;28;20327;-79
2022/06/22 09:15:24;;;;;;;;;;;28.70;90.10;;;;;;5051013;28;19940;-80
2022/06/22 09:18:02;;;;;;;;;;;28.70;88.90;;;;;;5037657;28;19920;-80
2022/06/22 09:20:27;;;;;;;;;;;28.80;87.30;;;;;;5041391;28;20426;-80
2022/06/22 09:23:04;;;;;;;;;;;28.90;87.30;;;;;;5040835;28;19921;-82
2022/06/22 09:25:34;;;;;;;;;;;28.80;89.40;;;;;;5041825;28;19931;-80
2022/06/22 09:28:01;;;;;;;;;;;28.30;87.80;;;;;;5041559;28;19921;-80
2022/06/22 09:30:42;;;;;;;;;;;28.40;87.00;;;;;;5040751;28;19924;-76
2022/06/22 09:33:08;;;;;;;;;;;28.60;86.30;;;;;;5050771;28;20027;-74
2022/06/22 09:35:53;;;;;;;;;;;29.10;89.70;;;;;;5041305;28;19925;-75
2022/06/22 09:38:44;;;;;;;;;;;28.80;89.50;;;;;;5038298;28;19920;-74
2022/06/22 09:41:19;;;;;;;;;;;28.80;89.30;;;;;;5051201;28;19920;-74
2022/06/22 09:43:50;;;;;;;;;;;28.60;90.10;;;;;;5046959;28;19950;-74
2022/06/22 09:46:18;;;;;;;;;;;28.70;89.70;;;;;;5047771;28;19921;-74
2022/06/22 09:48:59;;;;;;;;;;;28.90;90.20;;;;;;5051214;28;19928;-74
2022/06/22 09:51:43;;;;;;;;;;;29.00;87.60;;;;;;5048437;28;19927;-76
2022/06/22 09:57:16;;;;;;;;;;;28.50;89.90;;;;;;5037898;28;19920;-80
2022/06/22 09:59:41;;;;;;;;;;;28.60;86.60;;;;;;5051535;28;20395;-79
2022/06/22 10:02:20;;;;;;;;;;;28.20;87.20;;;;;;5050930;28;20019;-82
2022/06/22 10:04:56;;;;;;;;;;;28.20;91.00;;;;;;5047964;28;19963;-74
2022/06/22 10:07:28;;;;;;;;;;;28.10;90.90;;;;;;5050572;28;20380;-76
2022/06/22 10:10:14;;;;;;;;;;;28.60;89.50;;;;;;5041945;28;19921;-76
2022/06/22 10:12:54;;;;;;;;;;;29.10;90.80;;;;;;5048587;28;19925;-76
2022/06/22 10:15:29;;;;;;;;;;;29.20;86.70;;;;;;5039019;28;19925;-76
2022/06/22 10:17:58;;;;;;;;;;;29.00;85.10;;;;;;5059989;28;19999;-76
2022/06/22 10:20:32;;;;;;;;;;;29.00;85.90;;;;;;5045345;28;19921;-77
2022/06/22 10:23:22;;;;;;;;;;;29.10;88.70;;;;;;5066157;28;19955;-80
2022/06/22 10:26:14;;;;;;;;;;;29.10;88.90;;;;;;5064189;28;19932;-81
2022/06/22 10:28:39;;;;;;;;;;;29.30;91.10;;;;;;5065643;28;19921;-82
2022/06/22 10:31:11;;;;;;;;;;;29.50;88.20;;;;;;5045411;28;19928;-79
2022/06/22 10:33:56;;;;;;;;;;;29.70;89.70;;;;;;5062330;28;19920;-80
2022/06/22 10:36:22;;;;;;;;;;;29.70;87.70;;;;;;5046653;28;19920;-82
2022/06/22 10:38:59;;;;;;;;;;;29.20;88.70;;;;;;5064187;28;19920;-80
2022/06/22 10:47:50;;;;;;;;;;;28.80;89.70;;;;;;5044888;28;19921;-82
2022/06/22 10:50:32;;;;;;;;;;;28.90;89.70;;;;;;5059910;28;19920;-82
2022/06/22 10:53:01;;;;;;;;;;;28.90;90.40;;;;;;5058042;28;19935;-83
2022/06/22 10:55:27;;;;;;;;;;;28.70;90.40;;;;;;5062289;28;19947;-82
2022/06/22 10:57:55;;;;;;;;;;;28.90;90.40;;;;;;5062926;28;20360;-82
2022/06/22 11:00:33;;;;;;;;;;;29.20;90.50;;;;;;5064825;28;20253;-81
2022/06/22 11:03:16;;;;;;;;;;;29.30;90.30;;;;;;5062421;28;19964;-82
2022/06/22 11:06:00;;;;;;;;;;;29.30;90.40;;;;;;5062691;28;20368;-82
2022/06/22 11:08:37;;;;;;;;;;;29.40;88.60;;;;;;5043488;28;19921;-81
2022/06/22 11:11:16;;;;;;;;;;;29.60;90.00;;;;;;5062498;28;19932;-81
2022/06/22 11:14:12;;;;;;;;;;;29.20;90.20;;;;;;5043270;28;20296;-81
2022/06/22 11:17:03;;;;;;;;;;;29.40;88.30;;;;;;5062310;28;19928;-81
2022/06/22 11:19:40;;;;;;;;;;;28.90;87.30;;;;;;5050462;28;19931;-81
2022/06/22 11:22:12;;;;;;;;;;;28.40;87.50;;;;;;5050712;28;19921;-81
2022/06/22 11:24:37;;;;;;;;;;;28.50;90.70;;;;;;5053669;28;20036;-81
2022/06/22 11:33:19;;;;;;;;;;;29.00;91.10;;;;;;5041771;28;19920;-81
2022/06/22 11:36:04;;;;;;;;;;;29.20;91.00;;;;;;5043557;28;19921;-79
2022/06/22 11:38:48;;;;;;;;;;;28.90;90.40;;;;;;5041723;28;19920;-79
2022/06/22 11:41:14;;;;;;;;;;;28.10;91.10;;;;;;5046040;28;19928;-79
2022/06/22 11:43:42;;;;;;;;;;;28.10;91.50;;;;;;5043447;28;19921;-77
2022/06/22 11:46:19;;;;;;;;;;;28.10;91.80;;;;;;5052877;28;19928;-79
2022/06/22 11:48:56;;;;;;;;;;;28.20;92.10;;;;;;5054385;28;20304;-81
2022/06/22 11:51:27;;;;;;;;;;;28.00;91.60;;;;;;5049171;28;19928;-82
2022/06/22 11:54:08;;;;;;;;;;;28.00;91.50;;;;;;5040376;28;19978;-79
2022/06/22 11:56:36;;;;;;;;;;;27.60;92.20;;;;;;5050981;28;19920;-80
2022/06/22 11:59:20;;;;;;;;;;;27.30;91.90;;;;;;5044186;28;19927;-79
2022/06/22 12:01:52;;;;;;;;;;;27.20;91.80;;;;;;5038280;28;19928;-74
2022/06/22 12:04:39;;;;;;;;;;;27.10;92.00;;;;;;5051142;28;20691;-80
2022/06/22 12:07:28;;;;;;;;;;;27.50;92.80;;;;;;5052422;28;19924;-76
2022/06/22 12:10:09;;;;;;;;;;;27.40;91.30;;;;;;5036701;28;19966;-77
2022/06/22 12:12:43;;;;;;;;;;;27.30;92.10;;;;;;5051238;28;19931;-78
2022/06/22 12:15:14;;;;;;;;;;;27.60;94.00;;;;;;5035233;28;19925;-77
2022/06/22 12:17:55;;;;;;;;;;;27.40;92.00;;;;;;5049552;28;19921;-78
2022/06/22 12:20:28;;;;;;;;;;;27.50;92.30;;;;;;5037182;28;20407;-77
2022/06/22 12:23:00;;;;;;;;;;;27.70;93.30;;;;;;5024538;28;20011;-78
2022/06/22 12:25:45;;;;;;;;;;;27.80;92.00;;;;;;5014289;28;19921;-83
2022/06/22 12:28:23;;;;;;;;;;;27.90;91.10;;;;;;5039242;28;19935;-75
2022/06/22 12:31:06;;;;;;;;;;;27.70;92.30;;;;;;5034293;28;20020;-76
2022/06/22 12:33:35;;;;;;;;;;;27.50;91.50;;;;;;5019522;28;19921;-76
2022/06/22 12:36:04;;;;;;;;;;;27.20;93.10;;;;;;5031891;28;20372;-74
2022/06/22 12:38:42;;;;;;;;;;;27.30;92.20;;;;;;5011843;28;19920;-76
2022/06/22 12:41:32;;;;;;;;;;;27.30;92.90;;;;;;5027597;28;19967;-75
2022/06/22 12:44:16;;;;;;;;;;;27.20;92.30;;;;;;5036947;28;20253;-75
2022/06/22 12:46:47;;;;;;;;;;;26.90;91.90;;;;;;5025989;28;19921;-75
2022/06/22 12:49:29;;;;;;;;;;;26.50;92.80;;;;;;5026418;28;20748;-71
2022/06/22 12:52:03;;;;;;;;;;;26.40;93.40;;;;;;5024097;28;19972;-71
2022/06/22 12:54:32;;;;;;;;;;;26.60;93.10;;;;;;5004653;28;19925;-72
2022/06/22 12:57:01;;;;;;;;;;;26.40;92.10;;;;;;5006515;28;20435;-72
2022/06/22 12:59:32;;;;;;;;;;;26.60;92.40;;;;;;5022072;28;19922;-73
2022/06/22 13:01:58;;;;;;;;;;;26.50;93.40;;;;;;5021619;28;20288;-72
2022/06/22 13:04:25;;;;;;;;;;;26.70;93.30;;;;;;5021587;28;19921;-73
2022/06/22 13:06:53;;;;;;;;;;;26.50;92.40;;;;;;5021505;28;19943;-72
2022/06/22 13:09:20;;;;;;;;;;;26.70;92.20;;;;;;5019898;28;19928;-74
2022/06/22 13:11:46;;;;;;;;;;;26.40;92.60;;;;;;5016841;28;19920;-75
2022/06/22 13:14:12;;;;;;;;;;;26.10;92.50;;;;;;5015155;28;20368;-73
2022/06/22 13:16:46;;;;;;;;;;;26.00;93.50;;;;;;5018921;28;19921;-73
2022/06/22 13:19:16;;;;;;;;;;;25.80;93.60;;;;;;5044835;28;19924;-74
2022/06/22 13:21:45;;;;;;;;;;;25.70;94.00;;;;;;5028151;28;20299;-79
2022/06/22 13:24:10;;;;;;;;;;;25.60;93.50;;;;;;5028228;28;20022;-72
2022/06/22 13:27:02;;;;;;;;;;;25.70;94.00;;;;;;5033618;28;19921;-73
2022/06/22 13:29:31;;;;;;;;;;;25.70;94.30;;;;;;5043811;28;19920;-73
2022/06/22 13:31:59;;;;;;;;;;;25.80;94.50;;;;;;5024583;28;19916;-73
2022/06/22 13:34:28;;;;;;;;;;;25.90;93.60;;;;;;5022691;28;19924;-73
2022/06/22 13:37:28;;;;;;;;;;;26.10;94.30;;;;;;5042168;28;19928;-73
2022/06/22 13:40:03;;;;;;;;;;;26.00;93.20;;;;;;4997609;28;19922;-73
2022/06/22 13:42:31;;;;;;;;;;;25.80;93.50;;;;;;5037336;28;20091;-72
2022/06/22 13:45:15;;;;;;;;;;;26.00;94.70;;;;;;5042484;28;19989;-71
2022/06/22 13:47:44;;;;;;;;;;;26.00;94.10;;;;;;5032682;28;19928;-72
2022/06/22 13:50:31;;;;;;;;;;;25.80;93.90;;;;;;5039383;28;19920;-72
2022/06/22 13:53:02;;;;;;;;;;;25.40;94.30;;;;;;5017293;28;19941;-74
2022/06/22 13:55:40;;;;;;;;;;;25.30;94.10;;;;;;5033192;28;19951;-73
2022/06/22 13:58:16;;;;;;;;;;;25.40;93.40;;;;;;5045256;28;19928;-75
2022/06/22 14:01:01;;;;;;;;;;;25.60;93.70;;;;;;5030902;28;19998;-72
2022/06/22 14:03:43;;;;;;;;;;;25.50;92.70;;;;;;5041726;28;19921;-74
2022/06/22 14:06:11;;;;;;;;;;;25.40;94.40;;;;;;5045963;28;19920;-70
2022/06/22 14:08:42;;;;;;;;;;;25.50;93.50;;;;;;5043406;28;20347;-75
2022/06/22 14:11:20;;;;;;;;;;;25.50;94.20;;;;;;5026986;28;20366;-73
2022/06/22 14:13:49;;;;;;;;;;;25.30;93.00;;;;;;5022956;28;19928;-74
2022/06/22 14:16:28;;;;;;;;;;;25.40;93.80;;;;;;5023066;28;19986;-75
2022/06/22 14:18:54;;;;;;;;;;;25.30;93.60;;;;;;5026602;28;19927;-76
2022/06/22 14:21:23;;;;;;;;;;;25.30;93.50;;;;;;5030223;28;19929;-77
2022/06/22 14:23:49;;;;;;;;;;;25.20;93.00;;;;;;5029865;28;20113;-75
2022/06/22 14:26:17;;;;;;;;;;;25.30;93.60;;;;;;5030770;28;19917;-75
2022/06/22 14:28:50;;;;;;;;;;;25.40;93.60;;;;;;5029589;28;19927;-74
2022/06/22 14:31:30;;;;;;;;;;;25.20;93.80;;;;;;5026133;28;19936;-75
2022/06/22 14:34:05;;;;;;;;;;;25.20;94.00;;;;;;5022386;28;19925;-75
2022/06/22 14:36:39;;;;;;;;;;;25.30;94.30;;;;;;5029797;28;19921;-77
2022/06/22 14:39:16;;;;;;;;;;;25.40;94.00;;;;;;5030092;28;19925;-76
2022/06/22 14:41:50;;;;;;;;;;;25.30;93.60;;;;;;5030308;28;20365;-72
2022/06/22 14:44:27;;;;;;;;;;;25.40;93.50;;;;;;5031135;28;19921;-70
2022/06/22 14:47:06;;;;;;;;;;;25.40;94.70;;;;;;5019023;28;19921;-75
2022/06/22 14:49:41;;;;;;;;;;;25.40;93.70;;;;;;5030223;28;19921;-74
2022/06/22 14:52:25;;;;;;;;;;;25.50;94.20;;;;;;5023245;28;20016;-76
2022/06/22 14:54:57;;;;;;;;;;;25.30;93.60;;;;;;5023661;28;19921;-76
2022/06/22 14:57:28;;;;;;;;;;;25.40;94.30;;;;;;5022758;28;20023;-75
2022/06/22 15:00:06;;;;;;;;;;;25.30;93.80;;;;;;5029524;28;19927;-81
2022/06/22 15:02:38;;;;;;;;;;;25.20;94.00;;;;;;5029649;28;19921;-80
2022/06/22 15:05:28;;;;;;;;;;;25.20;94.30;;;;;;5034611;28;20376;-76
2022/06/22 15:08:03;;;;;;;;;;;25.30;93.80;;;;;;5030663;28;19921;-77
2022/06/22 15:10:41;;;;;;;;;;;25.40;94.10;;;;;;5032580;28;19921;-75
2022/06/22 15:13:13;;;;;;;;;;;25.30;94.40;;;;;;5032392;28;19921;-77